createdAt,value
2022-12-01T00:00:17.452Z,35.55
2022-12-01T00:02:44.771Z,34.83
2022-12-01T00:05:12.079Z,33.97
2022-12-01T00:07:39.313Z,36.58
2022-12-01T00:10:25.987Z,34.17
2022-12-01T00:12:53.872Z,34.03
2022-12-01T00:15:21.438Z,33.20
2022-12-01T00:17:49.339Z,37.47
2022-12-01T00:20:17.051Z,33.90
2022-12-01T00:22:47.371Z,38.13
2022-12-01T00:25:15.399Z,35.05
2022-12-01T00:27:42.878Z,34.40
2022-12-01T00:30:12.004Z,31.35
2022-12-01T00:32:39.264Z,34.83
2022-12-01T00:35:06.887Z,33.88
2022-12-01T00:37:34.750Z,34.20
2022-12-01T00:40:02.181Z,33.72
2022-12-01T00:42:29.439Z,35.78
2022-12-01T00:44:56.799Z,34.60
2022-12-01T00:47:23.974Z,34.83
2022-12-01T00:49:52.479Z,34.55
2022-12-01T00:52:20.291Z,34.88
2022-12-01T00:54:48.209Z,32.22
2022-12-01T00:57:15.387Z,36.17
2022-12-01T00:59:42.683Z,35.20
2022-12-01T01:02:10.590Z,34.95
2022-12-01T01:04:38.232Z,31.65
2022-12-01T01:07:05.483Z,33.05
2022-12-01T01:09:33.352Z,33.72
2022-12-01T01:12:00.642Z,33.88
2022-12-01T01:14:28.683Z,36.45
2022-12-01T01:16:56.353Z,32.65
2022-12-01T01:19:24.089Z,32.50
2022-12-01T01:21:51.281Z,34.65
2022-12-01T01:24:18.597Z,35.63
2022-12-01T01:26:45.906Z,33.15
2022-12-01T01:29:13.143Z,34.45
2022-12-01T01:31:40.478Z,33.90
2022-12-01T01:34:07.705Z,30.27
2022-12-01T01:36:35.486Z,32.38
2022-12-01T01:39:02.728Z,32.33
2022-12-01T01:41:30.115Z,30.80
2022-12-01T01:44:02.792Z,31.42
2022-12-01T01:46:31.747Z,30.90
2022-12-01T01:49:00.182Z,32.75
2022-12-01T01:51:30.118Z,31.13
2022-12-01T01:53:59.515Z,33.83
2022-12-01T01:58:54.057Z,30.90
2022-12-01T02:01:21.429Z,34.17
2022-12-01T02:03:49.180Z,35.20
2022-12-01T02:06:16.447Z,33.35
2022-12-01T02:08:43.682Z,32.33
2022-12-01T02:11:29.639Z,38.00
2022-12-01T02:14:15.652Z,33.22
2022-12-01T02:16:54.287Z,35.00
2022-12-01T02:19:21.484Z,37.97
2022-12-01T02:22:13.384Z,33.67
2022-12-01T02:24:52.967Z,34.05
2022-12-01T02:27:34.110Z,33.40
2022-12-01T02:30:13.646Z,38.83
2022-12-01T02:32:46.583Z,34.95
2022-12-01T02:35:17.581Z,35.05
2022-12-01T02:37:44.842Z,37.65
2022-12-01T02:40:21.594Z,35.47
2022-12-01T02:42:53.441Z,38.08
2022-12-01T02:45:40.983Z,38.45
2022-12-01T02:48:21.189Z,36.90
2022-12-01T02:50:51.157Z,37.08
2022-12-01T02:53:19.600Z,36.53
2022-12-01T02:55:47.785Z,38.08
2022-12-01T02:58:15.114Z,38.30
2022-12-01T03:00:49.775Z,36.05
2022-12-01T03:03:28.452Z,35.13
2022-12-01T03:06:14.224Z,38.58
2022-12-01T03:08:46.035Z,37.42
2022-12-01T03:11:27.060Z,32.58
2022-12-01T03:13:54.367Z,35.85
2022-12-01T03:16:27.970Z,36.30
2022-12-01T03:18:59.541Z,41.13
2022-12-01T03:21:40.627Z,36.22
2022-12-01T03:24:11.568Z,40.38
2022-12-01T03:26:40.200Z,41.83
2022-12-01T03:29:10.327Z,40.22
2022-12-01T03:31:44.280Z,37.15
2022-12-01T03:34:18.076Z,37.50
2022-12-01T03:36:53.499Z,34.20
2022-12-01T03:39:27.992Z,36.83
2022-12-01T03:41:59.831Z,38.75
2022-12-01T03:44:31.284Z,40.15
2022-12-01T03:47:02.601Z,40.55
2022-12-01T03:49:29.946Z,37.88
2022-12-01T03:52:10.138Z,38.38
2022-12-01T03:55:06.597Z,36.80
2022-12-01T03:57:36.757Z,39.47
2022-12-01T04:00:04.614Z,38.88
2022-12-01T04:02:40.282Z,40.35
2022-12-01T04:05:09.353Z,38.90
2022-12-01T04:07:37.668Z,39.83
2022-12-01T04:10:05.334Z,39.65
2022-12-01T04:12:35.359Z,39.05
2022-12-01T04:15:11.136Z,36.25
2022-12-01T04:17:38.999Z,34.97
2022-12-01T04:20:07.107Z,40.22
2022-12-01T04:22:34.597Z,37.80
2022-12-01T04:25:01.886Z,34.28
2022-12-01T04:27:29.125Z,36.60
2022-12-01T04:29:56.374Z,38.92
2022-12-01T04:32:23.655Z,42.38
2022-12-01T04:34:50.867Z,35.20
2022-12-01T04:37:18.447Z,36.42
2022-12-01T04:39:45.788Z,38.30
2022-12-01T04:42:13.273Z,37.13
2022-12-01T04:44:40.596Z,39.45
2022-12-01T04:47:07.890Z,42.25
2022-12-01T04:49:37.083Z,37.08
2022-12-01T04:52:04.358Z,38.25
2022-12-01T04:54:31.601Z,36.95
2022-12-01T04:56:58.952Z,37.90
2022-12-01T04:59:26.187Z,38.10
2022-12-01T05:01:53.455Z,40.00
2022-12-01T05:04:20.789Z,37.03
2022-12-01T05:06:48.126Z,41.03
2022-12-01T05:09:17.708Z,43.85
2022-12-01T05:11:45.360Z,41.63
2022-12-01T05:14:12.798Z,36.55
2022-12-01T05:16:40.286Z,38.50
2022-12-01T05:19:26.163Z,38.75
2022-12-01T05:21:54.030Z,38.22
2022-12-01T05:24:22.031Z,38.65
2022-12-01T05:26:49.288Z,43.42
2022-12-01T05:29:16.501Z,41.13
2022-12-01T05:31:43.790Z,36.60
2022-12-01T05:34:11.090Z,41.88
2022-12-01T05:36:38.355Z,39.45
2022-12-01T05:39:05.928Z,39.40
2022-12-01T05:41:33.139Z,40.47
2022-12-01T05:44:00.379Z,41.80
2022-12-01T05:46:27.628Z,38.55
2022-12-01T05:48:55.010Z,38.95
2022-12-01T05:51:22.272Z,39.03
2022-12-01T05:53:49.978Z,41.97
2022-12-01T05:56:17.204Z,39.13
2022-12-01T05:58:44.492Z,39.55
2022-12-01T06:01:11.767Z,40.47
2022-12-01T06:03:39.018Z,36.88
2022-12-01T06:06:06.338Z,42.95
2022-12-01T06:08:33.630Z,40.17
2022-12-01T06:11:01.015Z,36.58
2022-12-01T06:13:28.458Z,42.67
2022-12-01T06:16:03.178Z,40.15
2022-12-01T06:18:34.839Z,38.95
2022-12-01T06:21:02.281Z,42.40
2022-12-01T06:23:30.816Z,39.63
2022-12-01T06:25:58.687Z,41.65
2022-12-01T06:28:25.919Z,41.08
2022-12-01T06:30:55.494Z,37.85
2022-12-01T06:33:26.617Z,36.58
2022-12-01T06:36:00.799Z,38.03
2022-12-01T06:38:30.827Z,38.15
2022-12-01T06:40:58.156Z,39.95
2022-12-01T06:43:25.356Z,35.20
2022-12-01T06:45:57.783Z,42.42
2022-12-01T06:48:28.310Z,37.88
2022-12-01T06:50:58.007Z,37.40
2022-12-01T06:53:27.484Z,44.95
2022-12-01T06:55:55.166Z,37.47
2022-12-01T06:58:22.899Z,45.47
2022-12-01T07:00:52.247Z,39.40
2022-12-01T07:03:19.750Z,40.05
2022-12-01T07:05:55.875Z,40.58
2022-12-01T07:08:23.038Z,41.97
2022-12-01T07:10:57.123Z,37.58
2022-12-01T07:13:26.677Z,42.42
2022-12-01T07:15:57.984Z,40.30
2022-12-01T07:18:25.356Z,41.80
2022-12-01T07:20:52.612Z,37.10
2022-12-01T07:23:21.408Z,43.65
2022-12-01T07:25:48.624Z,34.63
2022-12-01T07:28:15.850Z,40.85
2022-12-01T07:30:43.115Z,44.08
2022-12-01T07:33:10.351Z,41.85
2022-12-01T07:35:37.531Z,39.58
2022-12-01T07:38:04.797Z,45.10
2022-12-01T07:40:32.191Z,44.25
2022-12-01T07:42:59.460Z,42.25
2022-12-01T07:45:26.648Z,46.63
2022-12-01T07:47:54.468Z,38.95
2022-12-01T07:50:21.703Z,40.05
2022-12-01T07:52:52.300Z,42.38
2022-12-01T07:55:19.487Z,45.53
2022-12-01T07:57:46.678Z,44.05
2022-12-01T08:00:14.502Z,45.63
2022-12-01T08:02:41.781Z,41.53
2022-12-01T08:05:09.499Z,47.28
2022-12-01T08:07:36.818Z,44.03
2022-12-01T08:10:04.346Z,42.22
2022-12-01T08:12:31.567Z,43.95
2022-12-01T08:14:58.744Z,45.50
2022-12-01T08:17:25.952Z,42.88
2022-12-01T08:19:53.166Z,39.92
2022-12-01T08:22:20.464Z,44.85
2022-12-01T08:24:47.722Z,42.25
2022-12-01T08:27:14.896Z,39.78
2022-12-01T08:29:42.146Z,37.72
2022-12-01T08:32:09.315Z,40.22
2022-12-01T08:34:41.442Z,41.05
2022-12-01T08:37:08.639Z,41.22
2022-12-01T08:39:35.918Z,40.05
2022-12-01T08:42:03.277Z,43.35
2022-12-01T08:44:30.562Z,44.58
2022-12-01T08:46:57.869Z,44.83
2022-12-01T08:49:26.335Z,45.05
2022-12-01T08:51:53.592Z,45.78
2022-12-01T08:54:20.839Z,47.47
2022-12-01T08:56:48.075Z,45.38
2022-12-01T08:59:15.343Z,44.53
2022-12-01T09:01:54.836Z,40.33
2022-12-01T09:04:23.431Z,47.00
2022-12-01T09:06:51.587Z,45.10
2022-12-01T09:09:20.299Z,43.03
2022-12-01T09:11:47.955Z,46.67
2022-12-01T09:14:15.901Z,49.50
2022-12-01T09:16:44.171Z,47.13
2022-12-01T09:19:13.342Z,46.42
2022-12-01T09:21:42.626Z,43.92
2022-12-01T09:24:10.993Z,48.65
2022-12-01T09:26:38.243Z,49.53
2022-12-01T09:29:06.814Z,49.53
2022-12-01T09:31:34.484Z,53.17
2022-12-01T09:34:03.473Z,56.30
2022-12-01T09:36:31.554Z,49.63
2022-12-01T09:38:58.799Z,48.15
2022-12-01T09:41:31.897Z,45.10
2022-12-01T09:44:02.174Z,45.75
2022-12-01T09:46:31.355Z,47.70
2022-12-01T09:48:59.557Z,49.58
2022-12-01T09:51:28.579Z,46.38
2022-12-01T09:53:57.384Z,53.20
2022-12-01T09:56:29.759Z,46.90
2022-12-01T09:59:07.261Z,50.17
2022-12-01T10:01:37.368Z,49.15
2022-12-01T10:04:15.496Z,48.53
2022-12-01T10:06:48.940Z,49.60
2022-12-01T10:09:21.488Z,53.30
2022-12-01T10:11:49.228Z,56.15
2022-12-01T10:14:20.004Z,47.00
2022-12-01T10:16:47.914Z,51.13
2022-12-01T10:19:18.638Z,46.78
2022-12-01T10:22:05.268Z,50.45
2022-12-01T10:24:41.722Z,49.22
2022-12-01T10:27:13.983Z,47.72
2022-12-01T10:29:47.944Z,50.78
2022-12-01T10:32:18.485Z,46.88
2022-12-01T10:34:47.858Z,49.53
2022-12-01T10:37:20.563Z,46.50
2022-12-01T10:39:49.409Z,55.88
2022-12-01T10:42:26.423Z,54.70
2022-12-01T10:44:54.890Z,56.65
2022-12-01T10:47:23.193Z,54.33
2022-12-01T10:49:50.720Z,48.28
2022-12-01T10:52:31.723Z,53.20
2022-12-01T10:54:59.022Z,51.05
2022-12-01T10:57:27.246Z,53.35
2022-12-01T11:00:00.970Z,47.58
2022-12-01T11:02:29.197Z,46.05
2022-12-01T11:04:58.946Z,44.60
2022-12-01T11:07:31.327Z,47.00
2022-12-01T11:10:34.271Z,46.70
2022-12-01T11:13:07.756Z,48.47
2022-12-01T11:15:39.052Z,47.92
2022-12-01T11:18:08.521Z,45.67
2022-12-01T11:23:15.401Z,45.20
2022-12-01T11:25:42.616Z,47.47
2022-12-01T11:28:20.422Z,46.25
2022-12-01T11:30:51.273Z,40.42
2022-12-01T11:33:22.581Z,47.65
2022-12-01T11:35:50.405Z,46.50
2022-12-01T11:38:30.302Z,44.00
2022-12-01T11:40:58.355Z,47.83
2022-12-01T11:43:34.084Z,43.60
2022-12-01T11:46:06.046Z,47.45
2022-12-01T11:48:35.262Z,43.83
2022-12-01T11:51:05.610Z,44.15
2022-12-01T11:53:35.882Z,49.35
2022-12-01T11:56:18.123Z,48.17
2022-12-01T11:58:47.484Z,46.60
2022-12-01T12:03:59.516Z,44.30
2022-12-01T12:06:47.024Z,44.30
2022-12-01T12:09:49.844Z,55.00
2022-12-01T12:12:30.929Z,48.00
2022-12-01T12:15:18.408Z,49.40
2022-12-01T12:17:54.309Z,43.35
2022-12-01T12:22:55.421Z,43.47
2022-12-01T12:25:28.302Z,42.42
2022-12-01T12:28:18.806Z,46.03
2022-12-01T12:31:06.879Z,41.83
2022-12-01T12:33:50.454Z,46.22
2022-12-01T12:36:17.639Z,43.28
2022-12-01T12:38:50.478Z,41.72
2022-12-01T12:41:20.834Z,47.58
2022-12-01T12:44:01.398Z,46.67
2022-12-01T12:46:47.446Z,43.95
2022-12-01T12:49:26.942Z,43.33
2022-12-01T12:52:08.089Z,38.63
2022-12-01T12:54:38.650Z,39.40
2022-12-01T12:57:07.656Z,41.03
2022-12-01T12:59:35.203Z,39.03
2022-12-01T13:02:17.622Z,41.70
2022-12-01T13:07:20.888Z,43.88
2022-12-01T13:09:51.662Z,45.53
2022-12-01T13:12:25.227Z,41.67
2022-12-01T13:15:15.987Z,43.90
2022-12-01T13:17:54.498Z,44.10
2022-12-01T13:20:25.736Z,40.20
2022-12-01T13:22:53.352Z,46.60
2022-12-01T13:25:29.959Z,41.85
2022-12-01T13:27:58.983Z,40.40
2022-12-01T13:30:26.916Z,41.22
2022-12-01T13:33:04.879Z,43.67
2022-12-01T13:35:34.095Z,36.88
2022-12-01T13:38:22.718Z,45.10
2022-12-01T13:40:50.306Z,39.55
2022-12-01T13:43:19.398Z,40.13
2022-12-01T13:45:47.097Z,42.35
2022-12-01T13:48:33.147Z,40.47
2022-12-01T13:51:01.764Z,43.50
2022-12-01T13:53:38.662Z,41.35
2022-12-01T13:56:24.105Z,40.67
2022-12-01T13:58:53.005Z,41.20
2022-12-01T14:01:20.558Z,37.78
2022-12-01T14:03:57.085Z,41.08
2022-12-01T14:06:27.582Z,35.75
2022-12-01T14:09:15.037Z,38.85
2022-12-01T14:11:42.847Z,39.33
2022-12-01T14:14:10.273Z,37.50
2022-12-01T14:16:46.774Z,39.08
2022-12-01T14:19:28.262Z,41.08
2022-12-01T14:21:55.481Z,39.88
2022-12-01T14:24:29.363Z,38.38
2022-12-01T14:26:56.691Z,41.40
2022-12-01T14:29:25.863Z,37.58
2022-12-01T14:31:53.042Z,35.85
2022-12-01T14:34:24.520Z,39.60
2022-12-01T14:37:10.649Z,36.25
2022-12-01T14:39:39.691Z,40.47
2022-12-01T14:42:06.964Z,33.53
2022-12-01T14:44:36.908Z,34.45
2022-12-01T14:47:11.772Z,35.47
2022-12-01T14:49:41.643Z,37.92
2022-12-01T14:52:18.319Z,43.40
2022-12-01T14:54:47.477Z,38.15
2022-12-01T14:57:17.424Z,42.42
2022-12-01T14:59:45.144Z,37.53
2022-12-01T15:02:12.919Z,35.80
2022-12-01T15:04:59.215Z,39.15
2022-12-01T15:07:26.483Z,39.95
2022-12-01T15:10:01.864Z,34.45
2022-12-01T15:12:30.338Z,35.92
2022-12-01T15:14:57.550Z,32.58
2022-12-01T15:17:32.401Z,37.38
2022-12-01T15:19:59.922Z,35.50
2022-12-01T15:22:30.146Z,36.13
2022-12-01T15:25:07.020Z,35.03
2022-12-01T15:27:34.302Z,35.15
2022-12-01T15:30:04.470Z,36.33
2022-12-01T15:32:33.276Z,36.88
2022-12-01T15:35:05.396Z,40.97
2022-12-01T15:37:40.246Z,39.83
2022-12-01T15:40:59.879Z,38.30
2022-12-01T15:43:07.757Z,36.65
2022-12-01T15:45:53.643Z,38.15
2022-12-01T15:48:28.559Z,37.47
2022-12-01T15:51:01.854Z,36.40
2022-12-01T15:53:33.364Z,34.97
2022-12-01T15:56:01.798Z,37.45
2022-12-01T15:58:34.715Z,36.13
2022-12-01T16:01:04.023Z,38.13
2022-12-01T16:03:31.403Z,36.22
2022-12-01T16:05:58.939Z,36.15
2022-12-01T16:08:29.115Z,37.42
2022-12-01T16:11:13.425Z,35.65
2022-12-01T16:13:55.930Z,36.08
2022-12-01T16:19:09.014Z,57.47
2022-12-01T16:21:50.184Z,41.67
2022-12-01T16:24:20.630Z,39.15
2022-12-01T16:26:55.494Z,37.42
2022-12-01T16:29:23.869Z,38.67
2022-12-01T16:32:18.667Z,39.55
2022-12-01T16:34:46.394Z,35.20
2022-12-01T16:37:14.353Z,35.67
2022-12-01T16:39:41.923Z,33.50
2022-12-01T16:42:16.367Z,35.70
2022-12-01T16:44:48.297Z,40.08
2022-12-01T16:47:21.672Z,39.10
2022-12-01T16:49:48.949Z,46.00
2022-12-01T16:52:43.157Z,80.72
2022-12-01T16:55:03.484Z,65.38
2022-12-01T16:57:30.672Z,49.78
2022-12-01T16:59:57.883Z,38.45
2022-12-01T17:02:25.105Z,39.47
2022-12-01T17:04:52.532Z,34.33
2022-12-01T17:07:19.954Z,41.03
2022-12-01T17:09:47.445Z,38.95
2022-12-01T17:12:14.701Z,35.95
2022-12-01T17:14:42.043Z,36.30
2022-12-01T17:17:09.601Z,38.03
2022-12-01T17:19:36.946Z,35.20
2022-12-01T17:22:04.262Z,41.40
2022-12-01T17:24:31.454Z,34.72
2022-12-01T17:26:58.683Z,36.53
2022-12-01T17:29:26.368Z,39.50
2022-12-01T17:31:53.634Z,35.28
2022-12-01T17:34:20.992Z,37.65
2022-12-01T17:36:48.223Z,33.40
2022-12-01T17:39:15.426Z,36.80
2022-12-01T17:41:42.634Z,36.47
2022-12-01T17:44:09.856Z,34.15
2022-12-01T17:46:38.475Z,33.53
2022-12-01T17:49:09.356Z,39.58
2022-12-01T17:51:37.474Z,34.95
2022-12-01T17:54:04.907Z,36.53
2022-12-01T17:56:32.211Z,37.92
2022-12-01T17:58:59.459Z,37.83
2022-12-01T18:01:30.160Z,33.83
2022-12-01T18:03:59.032Z,34.42
2022-12-01T18:06:26.924Z,37.42
2022-12-01T18:08:54.883Z,36.97
2022-12-01T18:11:22.854Z,38.20
2022-12-01T18:13:50.883Z,34.15
2022-12-01T18:16:19.801Z,35.42
2022-12-01T18:18:47.330Z,32.42
2022-12-01T18:21:15.881Z,35.20
2022-12-01T18:23:43.623Z,37.03
2022-12-01T18:26:15.790Z,36.40
2022-12-01T18:28:43.774Z,39.63
2022-12-01T18:31:12.233Z,46.13
2022-12-01T18:33:40.781Z,39.88
2022-12-01T18:36:26.683Z,35.95
2022-12-01T18:38:54.649Z,37.78
2022-12-01T18:41:21.922Z,31.75
2022-12-01T18:43:49.509Z,35.00
2022-12-01T18:46:17.675Z,33.05
2022-12-01T18:48:49.155Z,30.98
2022-12-01T18:51:16.612Z,29.67
2022-12-01T18:53:45.463Z,34.20
2022-12-01T18:56:15.048Z,32.67
2022-12-01T18:58:42.671Z,31.48
2022-12-01T19:01:25.568Z,30.38
2022-12-01T19:03:52.867Z,32.70
2022-12-01T19:06:20.132Z,29.25
2022-12-01T19:08:47.493Z,30.23
2022-12-01T19:11:15.072Z,32.70
2022-12-01T19:13:42.354Z,29.83
2022-12-01T19:16:11.111Z,29.40
2022-12-01T19:18:38.926Z,31.85
2022-12-01T19:21:07.286Z,30.35
2022-12-01T19:23:34.834Z,36.20
2022-12-01T19:26:06.126Z,28.38
2022-12-01T19:28:34.051Z,29.85
2022-12-01T19:31:01.448Z,34.17
2022-12-01T19:33:29.256Z,28.15
2022-12-01T19:35:56.507Z,34.45
2022-12-01T19:38:25.589Z,31.80
2022-12-01T19:40:52.826Z,34.20
2022-12-01T19:43:20.070Z,35.13
2022-12-01T19:45:47.364Z,32.50
2022-12-01T19:48:14.609Z,38.50
2022-12-01T19:50:41.829Z,37.22
2022-12-01T19:53:09.039Z,32.95
2022-12-01T19:55:37.289Z,39.10
2022-12-01T19:58:05.253Z,42.17
2022-12-01T20:00:32.849Z,34.88
2022-12-01T20:03:01.014Z,34.70
2022-12-01T20:05:28.233Z,29.75
2022-12-01T20:07:55.521Z,32.78
2022-12-01T20:10:22.857Z,30.95
2022-12-01T20:12:50.719Z,31.23
2022-12-01T20:15:18.163Z,33.83
2022-12-01T20:17:45.355Z,31.38
2022-12-01T20:20:13.087Z,29.80
2022-12-01T20:22:40.318Z,31.35
2022-12-01T20:25:09.134Z,33.78
2022-12-01T20:27:36.454Z,34.72
2022-12-01T20:30:03.835Z,32.25
2022-12-01T20:32:31.075Z,36.33
2022-12-01T20:34:58.387Z,33.50
2022-12-01T20:37:25.764Z,34.83
2022-12-01T20:39:53.074Z,35.05
2022-12-01T20:42:22.310Z,36.28
2022-12-01T20:44:49.780Z,33.35
2022-12-01T20:47:18.751Z,33.30
2022-12-01T20:49:45.993Z,36.67
2022-12-01T20:52:13.229Z,37.47
2022-12-01T20:54:42.395Z,40.85
2022-12-01T20:57:09.752Z,39.97
2022-12-01T20:59:37.113Z,36.67
2022-12-01T21:02:04.358Z,34.90
2022-12-01T21:04:31.645Z,41.58
2022-12-01T21:06:59.028Z,35.45
2022-12-01T21:09:26.710Z,38.08
2022-12-01T21:12:12.706Z,34.70
2022-12-01T21:14:42.623Z,33.78
2022-12-01T21:17:22.536Z,39.85
2022-12-01T21:19:56.500Z,33.75
2022-12-01T21:22:25.288Z,38.50
2022-12-01T21:24:52.921Z,30.88
2022-12-01T21:27:20.560Z,36.55
2022-12-01T21:29:48.977Z,35.35
2022-12-01T21:32:22.785Z,36.85
2022-12-01T21:34:50.343Z,39.60
2022-12-01T21:37:22.414Z,37.45
2022-12-01T21:39:51.085Z,39.03
2022-12-01T21:42:22.592Z,35.45
2022-12-01T21:44:50.729Z,37.80
2022-12-01T21:47:23.254Z,36.83
2022-12-01T21:49:52.510Z,35.80
2022-12-01T21:52:20.931Z,33.53
2022-12-01T21:54:48.784Z,35.10
2022-12-01T21:57:30.342Z,34.45
2022-12-01T22:00:16.131Z,36.10
2022-12-01T22:03:02.288Z,33.28
2022-12-01T22:05:55.850Z,31.10
2022-12-01T22:08:35.796Z,32.65
2022-12-01T22:11:09.240Z,37.22
2022-12-01T22:13:41.178Z,36.25
2022-12-01T22:16:20.497Z,40.33
2022-12-01T22:18:52.500Z,34.55
2022-12-01T22:21:22.449Z,39.47
2022-12-01T22:23:50.530Z,38.33
2022-12-01T22:26:20.783Z,38.05
2022-12-01T22:28:48.949Z,36.97
2022-12-01T22:31:16.926Z,37.22
2022-12-01T22:33:44.216Z,41.45
2022-12-01T22:36:25.654Z,39.42
2022-12-01T22:38:52.844Z,40.95
2022-12-01T22:41:20.863Z,41.83
2022-12-01T22:43:51.403Z,37.67
2022-12-01T22:46:27.829Z,40.13
2022-12-01T22:48:55.137Z,41.63
2022-12-01T22:51:25.547Z,42.58
2022-12-01T22:53:55.588Z,43.45
2022-12-01T22:56:40.296Z,44.70
2022-12-01T22:59:27.919Z,51.97
2022-12-01T23:01:56.304Z,54.83
2022-12-01T23:04:44.480Z,54.13
2022-12-01T23:07:29.001Z,43.85
2022-12-01T23:10:15.079Z,46.22
2022-12-01T23:12:42.694Z,60.22
2022-12-01T23:15:21.214Z,48.85
2022-12-01T23:17:49.115Z,50.45
2022-12-01T23:20:25.429Z,60.90
2022-12-01T23:22:56.880Z,51.15
2022-12-01T23:25:24.966Z,48.08
2022-12-01T23:27:53.424Z,57.63
2022-12-01T23:30:21.607Z,64.85
2022-12-01T23:33:04.481Z,65.57
2022-12-01T23:35:32.790Z,61.22
2022-12-01T23:38:00.010Z,56.35
2022-12-01T23:40:33.518Z,62.38
2022-12-01T23:43:12.387Z,63.35
2022-12-01T23:45:39.846Z,63.65
2022-12-01T23:48:11.336Z,70.07
2022-12-01T23:50:38.659Z,60.65
2022-12-01T23:53:05.986Z,70.88
2022-12-01T23:55:33.181Z,65.13
2022-12-01T23:58:01.779Z,61.08
